Time;durP1;ratioP1;P1;durP2;ratioP2;P2;SDS_P1;SDS_P2;PMS_P1;PMS_P2;Temp;Humidity;BMP_temperature;BMP_pressure;BME280_temperature;BME280_humidity;BME280_pressure;Samples;Min_cycle;Max_cycle;Signal;HPM_P1;HPM_P2
2021/11/07 00:03:42;;;;;;;13.98;6.75;;;12.40;99.90;;;;;;5031934;28;20040;-76
2021/11/07 00:11:20;;;;;;;10.45;6.65;;;12.50;99.90;;;;;;5035754;28;20029;-76
2021/11/07 00:13:47;;;;;;;11.02;6.40;;;12.50;99.90;;;;;;5024193;28;20095;-76
2021/11/07 00:16:20;;;;;;;8.18;5.53;;;12.50;99.90;;;;;;5017913;28;20524;-76
2021/11/07 00:18:56;;;;;;;13.30;6.60;;;12.50;99.90;;;;;;5035412;28;20036;-76
2021/11/07 00:21:25;;;;;;;10.27;6.68;;;12.50;99.90;;;;;;5035535;28;20041;-76
2021/11/07 00:26:29;;;;;;;10.57;7.47;;;12.50;99.90;;;;;;5035535;28;20053;-77
2021/11/07 00:29:07;;;;;;;11.32;6.90;;;12.50;99.90;;;;;;5035960;28;20025;-76
2021/11/07 00:46:22;;;;;;;11.85;7.30;;;12.40;99.90;;;;;;5035592;28;20136;-76
2021/11/07 00:48:55;;;;;;;12.85;7.50;;;12.40;99.90;;;;;;5017450;28;20036;-76
2021/11/07 00:58:54;;;;;;;9.23;5.80;;;12.30;99.90;;;;;;5034895;28;20498;-76
2021/11/07 01:01:26;;;;;;;11.55;5.75;;;12.30;99.90;;;;;;5004624;28;20069;-76
2021/11/07 01:03:52;;;;;;;7.65;5.85;;;12.30;99.90;;;;;;5034909;28;20037;-77
2021/11/07 01:06:19;;;;;;;7.85;5.57;;;12.20;99.90;;;;;;5034252;28;20410;-76
2021/11/07 01:08:45;;;;;;;10.98;6.00;;;12.20;99.90;;;;;;5027892;28;20622;-76
2021/11/07 01:11:11;;;;;;;12.95;6.28;;;12.20;99.90;;;;;;5036920;28;20025;-76
2021/11/07 01:13:37;;;;;;;10.63;5.95;;;12.20;99.90;;;;;;5016530;28;20486;-76
2021/11/07 01:16:03;;;;;;;9.38;5.30;;;12.10;99.90;;;;;;5017138;28;20116;-76
2021/11/07 01:18:29;;;;;;;9.60;5.53;;;12.10;99.90;;;;;;5034387;28;20093;-77
2021/11/07 01:20:56;;;;;;;11.18;4.85;;;12.10;99.90;;;;;;5034498;28;20072;-76
2021/11/07 01:23:29;;;;;;;10.60;5.30;;;12.10;99.90;;;;;;5034200;28;20026;-77
2021/11/07 01:26:14;;;;;;;13.60;5.38;;;12.10;99.90;;;;;;5034308;28;20367;-76
2021/11/07 01:28:46;;;;;;;7.47;5.80;;;12.10;99.90;;;;;;5016490;28;20444;-76
2021/11/07 01:31:12;;;;;;;11.48;6.70;;;12.10;99.90;;;;;;5035950;28;20028;-77
2021/11/07 01:33:38;;;;;;;12.48;6.15;;;12.00;99.90;;;;;;5017298;28;20037;-77
2021/11/07 01:42:07;;;;;;;9.98;7.10;;;11.90;99.90;;;;;;5018632;28;20391;-76
2021/11/07 01:44:50;;;;;;;13.95;6.45;;;11.70;99.90;;;;;;5034406;28;20029;-76
2021/11/07 01:47:16;;;;;;;11.18;7.30;;;11.70;99.90;;;;;;5034355;28;20030;-77
2021/11/07 01:49:43;;;;;;;9.77;6.78;;;11.70;99.90;;;;;;5034320;28;20030;-76
2021/11/07 01:52:11;;;;;;;13.05;7.40;;;11.60;99.90;;;;;;5033890;28;20025;-77
2021/11/07 01:57:26;;;;;;;9.40;6.65;;;11.50;99.90;;;;;;5034688;28;20045;-77
2021/11/07 01:59:56;;;;;;;14.77;7.72;;;11.40;99.90;;;;;;5033537;28;20045;-76
2021/11/07 02:02:34;;;;;;;9.98;7.25;;;11.40;99.90;;;;;;5034440;28;20061;-76
2021/11/07 02:05:02;;;;;;;10.25;7.13;;;11.40;99.90;;;;;;5033825;28;20036;-76
2021/11/07 02:07:27;;;;;;;11.60;8.18;;;11.40;99.90;;;;;;5033414;28;20022;-77
2021/11/07 02:09:53;;;;;;;12.80;7.60;;;11.40;99.90;;;;;;5033711;28;20037;-76
2021/11/07 02:12:19;;;;;;;14.77;6.70;;;11.40;99.90;;;;;;5016368;28;20044;-76
2021/11/07 02:14:45;;;;;;;12.07;7.18;;;11.40;99.90;;;;;;5033463;28;20033;-76
2021/11/07 02:17:11;;;;;;;10.43;6.57;;;11.40;99.90;;;;;;5033325;28;20045;-76
2021/11/07 02:19:41;;;;;;;16.33;6.68;;;11.30;99.90;;;;;;5034729;28;20025;-77
2021/11/07 02:22:07;;;;;;;10.90;6.97;;;11.40;99.90;;;;;;5032920;28;20055;-76
2021/11/07 02:24:35;;;;;;;10.32;6.60;;;11.40;99.90;;;;;;5033365;28;20120;-77
2021/11/07 02:27:02;;;;;;;10.15;7.30;;;11.30;99.90;;;;;;5033421;28;20441;-77
2021/11/07 02:29:30;;;;;;;10.05;6.72;;;11.30;99.90;;;;;;5033102;28;20363;-76
2021/11/07 02:31:56;;;;;;;10.77;7.05;;;11.30;99.90;;;;;;5032263;28;20421;-77
2021/11/07 02:34:26;;;;;;;12.35;7.25;;;11.30;99.90;;;;;;5033581;28;20053;-76
2021/11/07 02:36:52;;;;;;;14.07;6.57;;;11.20;99.90;;;;;;5033110;28;21141;-77
2021/11/07 02:39:20;;;;;;;8.95;6.72;;;11.20;99.90;;;;;;5033092;28;20129;-77
2021/11/07 02:41:46;;;;;;;9.82;6.70;;;11.20;99.90;;;;;;5033201;28;20033;-77
2021/11/07 02:44:33;;;;;;;11.18;6.40;;;11.20;99.90;;;;;;5032897;28;20124;-77
2021/11/07 02:47:01;;;;;;;15.95;6.20;;;11.30;99.90;;;;;;5032900;28;20571;-76
2021/11/07 02:49:26;;;;;;;10.38;6.15;;;11.30;99.90;;;;;;5033133;28;20030;-77
2021/11/07 02:51:55;;;;;;;9.18;6.55;;;11.30;99.90;;;;;;5033055;28;20103;-76
2021/11/07 02:54:21;;;;;;;9.30;6.13;;;11.30;99.90;;;;;;5033380;28;20042;-76
2021/11/07 02:56:49;;;;;;;8.45;5.47;;;11.40;99.90;;;;;;5032085;28;20034;-77
2021/11/07 02:59:27;;;;;;;9.57;5.30;;;11.40;99.90;;;;;;5032610;28;20021;-77
2021/11/07 03:01:55;;;;;;;11.60;5.72;;;11.50;99.90;;;;;;5032959;28;20037;-76
2021/11/07 03:04:22;;;;;;;10.85;5.85;;;11.50;99.90;;;;;;5032724;28;20037;-77
2021/11/07 03:06:48;;;;;;;6.75;5.20;;;11.50;99.90;;;;;;5032374;28;20033;-77
2021/11/07 03:09:26;;;;;;;6.72;4.68;;;11.50;99.90;;;;;;5032566;28;20044;-76
2021/11/07 03:11:53;;;;;;;10.95;5.60;;;11.60;99.90;;;;;;5024671;28;20116;-77
2021/11/07 03:14:27;;;;;;;7.78;5.43;;;11.60;99.90;;;;;;5032308;28;20041;-77
2021/11/07 03:16:55;;;;;;;9.18;5.65;;;11.60;99.90;;;;;;5031230;28;20057;-76
2021/11/07 03:19:23;;;;;;;8.48;5.95;;;11.60;99.90;;;;;;5027557;28;20041;-77
2021/11/07 03:21:50;;;;;;;7.13;4.97;;;11.50;99.90;;;;;;5032002;28;20063;-77
2021/11/07 03:24:18;;;;;;;8.10;5.75;;;11.50;99.90;;;;;;5032724;28;20033;-77
2021/11/07 03:26:44;;;;;;;8.75;5.60;;;11.50;99.90;;;;;;5032048;28;20406;-76
2021/11/07 03:29:11;;;;;;;7.78;5.75;;;11.50;99.90;;;;;;5032024;28;20037;-77
2021/11/07 03:32:03;;;;;;;8.88;5.07;;;11.60;99.90;;;;;;5024732;28;20109;-77
2021/11/07 03:34:44;;;;;;;7.97;5.43;;;11.50;99.90;;;;;;5022696;28;20045;-77
2021/11/07 03:37:12;;;;;;;7.32;5.18;;;11.60;99.90;;;;;;5025875;28;20026;-76
2021/11/07 03:39:38;;;;;;;10.45;6.80;;;11.60;99.90;;;;;;5032454;28;20044;-76
2021/11/07 03:42:08;;;;;;;9.80;5.85;;;11.60;99.90;;;;;;5038953;28;20433;-76
2021/11/07 03:44:34;;;;;;;8.63;5.57;;;11.60;99.90;;;;;;5038515;28;20389;-77
2021/11/07 03:47:02;;;;;;;7.10;5.57;;;11.50;99.90;;;;;;5038796;28;20033;-77
2021/11/07 03:49:28;;;;;;;13.43;6.13;;;11.50;99.90;;;;;;5038313;28;20030;-76
2021/11/07 03:51:54;;;;;;;8.00;5.70;;;11.50;99.90;;;;;;5021131;28;20033;-77
2021/11/07 03:54:22;;;;;;;8.15;5.60;;;11.50;99.90;;;;;;5037999;28;20116;-76
2021/11/07 03:56:48;;;;;;;8.35;5.18;;;11.40;99.90;;;;;;5020501;28;20438;-76
2021/11/07 03:59:14;;;;;;;10.25;5.85;;;11.40;99.90;;;;;;5038535;28;20114;-77
2021/11/07 04:01:40;;;;;;;6.00;4.72;;;11.40;99.90;;;;;;5019032;28;20073;-77
2021/11/07 04:04:07;;;;;;;7.30;5.47;;;11.50;99.90;;;;;;5039004;28;20091;-77
2021/11/07 04:06:33;;;;;;;8.18;5.43;;;11.50;99.90;;;;;;5038810;28;20087;-77
2021/11/07 04:09:00;;;;;;;7.32;5.50;;;11.50;99.90;;;;;;5038802;28;20026;-77
2021/11/07 04:11:27;;;;;;;8.45;5.30;;;11.50;99.90;;;;;;5038258;28;20105;-77
2021/11/07 04:13:53;;;;;;;7.55;4.97;;;11.60;99.90;;;;;;5038193;28;20041;-76
2021/11/07 04:16:18;;;;;;;9.15;4.88;;;11.60;99.90;;;;;;5020615;28;20037;-77
2021/11/07 04:18:45;;;;;;;5.10;3.97;;;11.60;99.90;;;;;;5038377;28;20104;-76
2021/11/07 04:21:11;;;;;;;11.32;5.03;;;11.60;99.90;;;;;;5038544;28;20025;-76
2021/11/07 04:23:37;;;;;;;7.57;5.25;;;11.70;99.90;;;;;;5037864;28;20046;-77
2021/11/07 04:26:03;;;;;;;7.22;5.35;;;11.60;99.90;;;;;;5019942;28;20053;-76
2021/11/07 04:28:29;;;;;;;7.82;4.90;;;11.50;99.90;;;;;;5037936;28;20037;-76
2021/11/07 04:30:55;;;;;;;7.65;4.82;;;11.50;99.90;;;;;;5038474;28;20041;-76
2021/11/07 04:33:22;;;;;;;6.90;5.13;;;11.50;99.90;;;;;;5019998;28;20038;-77
2021/11/07 04:35:48;;;;;;;6.82;4.82;;;11.50;99.90;;;;;;5037623;28;20017;-77
2021/11/07 04:38:15;;;;;;;7.65;5.10;;;11.50;99.90;;;;;;5038164;28;20048;-77
2021/11/07 04:40:41;;;;;;;7.80;4.93;;;11.60;99.90;;;;;;5038156;28;20099;-76
2021/11/07 04:43:06;;;;;;;7.53;5.07;;;11.60;99.90;;;;;;5038583;28;20469;-76
2021/11/07 04:45:32;;;;;;;7.68;4.80;;;11.50;99.90;;;;;;5037612;28;20025;-77
2021/11/07 04:47:58;;;;;;;7.25;5.53;;;11.50;99.90;;;;;;5038083;28;20025;-77
2021/11/07 04:50:24;;;;;;;8.15;4.88;;;11.50;99.90;;;;;;5037885;28;20099;-76
2021/11/07 04:52:50;;;;;;;11.07;5.50;;;11.50;99.90;;;;;;5035057;28;20490;-76
2021/11/07 04:55:16;;;;;;;7.60;4.97;;;11.40;99.90;;;;;;5017462;28;20026;-77
2021/11/07 04:57:42;;;;;;;7.35;5.32;;;11.50;99.90;;;;;;5035038;28;20113;-77
2021/11/07 05:00:14;;;;;;;8.52;5.32;;;11.50;99.90;;;;;;5034857;28;20109;-77
2021/11/07 05:02:40;;;;;;;8.35;5.57;;;11.60;99.90;;;;;;5016796;28;20029;-76
2021/11/07 05:05:07;;;;;;;7.07;4.60;;;11.60;99.90;;;;;;5035016;28;20030;-76
2021/11/07 05:07:33;;;;;;;5.15;4.03;;;11.60;99.90;;;;;;5034543;28;20034;-77
2021/11/07 05:09:59;;;;;;;5.18;3.83;;;11.70;99.90;;;;;;5034438;28;20048;-77
2021/11/07 05:12:25;;;;;;;5.85;4.43;;;11.80;99.90;;;;;;5034688;28;20446;-76
2021/11/07 05:14:51;;;;;;;5.93;4.25;;;11.80;99.90;;;;;;5034419;28;20422;-76
2021/11/07 05:17:17;;;;;;;6.32;4.15;;;11.90;99.90;;;;;;5034547;28;20390;-76
2021/11/07 05:19:43;;;;;;;5.63;4.20;;;11.90;99.90;;;;;;5034796;28;20034;-76
2021/11/07 05:22:09;;;;;;;4.70;3.45;;;11.90;99.90;;;;;;5034557;28;20036;-77
2021/11/07 05:24:35;;;;;;;4.53;3.35;;;11.90;99.90;;;;;;5034093;28;20520;-77
2021/11/07 05:27:01;;;;;;;5.57;4.05;;;12.00;99.90;;;;;;5034027;28;20038;-76
2021/11/07 05:29:27;;;;;;;4.68;3.72;;;12.00;99.90;;;;;;5034096;28;20064;-77
2021/11/07 05:31:52;;;;;;;9.57;3.72;;;12.00;99.90;;;;;;5033616;28;20489;-77
2021/11/07 05:34:18;;;;;;;4.75;3.63;;;12.00;99.90;;;;;;5033469;28;20048;-76
2021/11/07 05:36:45;;;;;;;5.65;3.65;;;12.10;99.90;;;;;;5033517;28;20033;-77
2021/11/07 05:39:12;;;;;;;5.00;3.20;;;12.10;99.90;;;;;;5033718;28;20053;-78
2021/11/07 05:41:38;;;;;;;5.65;3.70;;;12.10;99.90;;;;;;5034036;28;20026;-77
2021/11/07 05:44:04;;;;;;;3.72;3.05;;;12.20;99.90;;;;;;5033748;28;20104;-76
2021/11/07 05:46:32;;;;;;;7.90;3.20;;;12.20;99.90;;;;;;5033954;28;20033;-77
2021/11/07 05:48:58;;;;;;;4.65;3.05;;;12.20;99.90;;;;;;5034084;28;20029;-77
2021/11/07 05:51:24;;;;;;;4.72;3.45;;;12.20;99.90;;;;;;5031593;28;20033;-77
2021/11/07 05:53:50;;;;;;;5.70;3.60;;;12.20;99.90;;;;;;5033573;28;20064;-76
2021/11/07 05:56:15;;;;;;;8.48;4.60;;;12.30;99.90;;;;;;5033173;28;20025;-76
2021/11/07 05:58:41;;;;;;;12.23;5.30;;;12.30;99.90;;;;;;5033482;28;20444;-77
2021/11/07 06:01:07;;;;;;;7.82;4.05;;;12.40;99.90;;;;;;5033740;28;20039;-77
2021/11/07 06:03:33;;;;;;;5.97;4.55;;;12.40;99.90;;;;;;5033092;28;20088;-77
2021/11/07 06:05:59;;;;;;;6.80;4.60;;;12.40;99.90;;;;;;5033937;28;20033;-77
2021/11/07 06:08:24;;;;;;;7.55;4.07;;;12.40;99.90;;;;;;5033750;28;20450;-76
2021/11/07 06:10:50;;;;;;;5.28;3.90;;;12.40;99.90;;;;;;5033503;28;20018;-76
2021/11/07 06:13:16;;;;;;;5.80;3.85;;;12.40;99.90;;;;;;5033361;28;20065;-77
2021/11/07 06:15:42;;;;;;;7.13;3.63;;;12.40;99.90;;;;;;5033350;28;20117;-77
2021/11/07 06:18:08;;;;;;;4.68;3.28;;;12.40;99.90;;;;;;5033116;28;20091;-77
2021/11/07 06:20:34;;;;;;;4.65;3.42;;;12.50;99.90;;;;;;5033341;28;20036;-77
2021/11/07 06:23:03;;;;;;;6.95;3.05;;;12.60;99.90;;;;;;5032829;28;20013;-77
2021/11/07 06:25:29;;;;;;;4.53;3.25;;;12.80;99.90;;;;;;5032883;28;20061;-77
2021/11/07 06:27:55;;;;;;;4.60;3.25;;;12.80;99.90;;;;;;5033245;28;20060;-76
2021/11/07 06:30:21;;;;;;;8.30;3.45;;;12.80;99.90;;;;;;5033080;28;20578;-77
2021/11/07 06:32:47;;;;;;;5.75;4.10;;;12.70;99.90;;;;;;5032277;28;20129;-77
2021/11/07 06:35:13;;;;;;;5.80;3.85;;;12.60;99.90;;;;;;5032831;28;20028;-77
2021/11/07 06:37:42;;;;;;;7.25;4.15;;;12.60;99.90;;;;;;5032658;28;20033;-77
2021/11/07 06:40:09;;;;;;;5.75;4.25;;;12.40;99.90;;;;;;5032522;28;20033;-77
2021/11/07 06:42:35;;;;;;;9.43;3.80;;;12.40;99.90;;;;;;5014792;28;20061;-77
2021/11/07 06:45:01;;;;;;;5.88;3.92;;;12.40;99.90;;;;;;5032531;28;20061;-77
2021/11/07 06:47:27;;;;;;;7.50;3.72;;;12.30;99.90;;;;;;5032637;28;20029;-77
2021/11/07 06:49:53;;;;;;;6.82;3.85;;;12.20;99.90;;;;;;5032386;28;20076;-76
2021/11/07 06:52:20;;;;;;;7.95;3.95;;;12.20;99.90;;;;;;5015036;28;20033;-77
2021/11/07 06:54:47;;;;;;;8.75;4.15;;;12.20;99.90;;;;;;5032463;28;20033;-77
2021/11/07 06:57:13;;;;;;;7.13;4.40;;;12.30;99.90;;;;;;5031353;28;20041;-77
2021/11/07 06:59:39;;;;;;;8.90;4.60;;;12.30;99.90;;;;;;5032249;28;20056;-76
2021/11/07 07:02:06;;;;;;;7.53;4.60;;;12.30;99.90;;;;;;5021474;28;20034;-76
2021/11/07 07:04:31;;;;;;;6.47;4.45;;;12.30;99.90;;;;;;5028288;28;20065;-77
2021/11/07 07:06:58;;;;;;;5.50;3.70;;;12.40;99.90;;;;;;5015207;28;20060;-77
2021/11/07 07:09:27;;;;;;;8.60;4.00;;;12.50;99.90;;;;;;5032479;28;20500;-77
2021/11/07 07:12:20;;;;;;;5.03;4.07;;;12.60;99.90;;;;;;5032577;28;20124;-76
2021/11/07 07:14:48;;;;;;;6.28;4.05;;;12.70;99.90;;;;;;5030981;28;20049;-77
2021/11/07 07:17:27;;;;;;;7.32;4.00;;;12.90;99.90;;;;;;5032184;28;20462;-77
2021/11/07 07:20:08;;;;;;;6.13;3.80;;;13.00;99.90;;;;;;5032112;28;20390;-77
2021/11/07 07:30:41;;;;;;;6.07;3.83;;;13.30;99.90;;;;;;5032719;28;20038;-77
2021/11/07 07:33:30;;;;;;;5.97;3.90;;;13.40;99.90;;;;;;5032277;28;20129;-77
2021/11/07 07:35:56;;;;;;;5.65;3.53;;;13.60;99.90;;;;;;5032039;28;20133;-77
2021/11/07 07:38:24;;;;;;;5.35;3.70;;;13.70;99.90;;;;;;5031744;28;20033;-77
2021/11/07 07:40:50;;;;;;;7.25;4.18;;;13.80;99.90;;;;;;5031998;28;20028;-76
2021/11/07 07:43:17;;;;;;;4.68;3.70;;;14.00;99.90;;;;;;5031991;28;20099;-77
2021/11/07 07:45:43;;;;;;;7.75;4.15;;;14.10;99.90;;;;;;5032061;28;20367;-77
2021/11/07 07:48:09;;;;;;;7.75;4.07;;;14.30;99.90;;;;;;5031474;28;20056;-77
2021/11/07 07:50:38;;;;;;;5.93;4.05;;;14.60;99.90;;;;;;5031906;28;20025;-77
2021/11/07 07:53:05;;;;;;;6.82;3.35;;;14.90;99.90;;;;;;5031949;28;20036;-77
2021/11/07 07:55:31;;;;;;;5.07;3.30;;;15.40;99.90;;;;;;5012877;28;20030;-78
2021/11/07 07:57:57;;;;;;;4.80;3.00;;;15.80;99.90;;;;;;5031241;28;20060;-77
2021/11/07 08:00:23;;;;;;;5.05;3.40;;;16.30;99.90;;;;;;5031406;28;20032;-77
2021/11/07 08:02:49;;;;;;;4.13;2.60;;;16.60;99.90;;;;;;5021679;28;20491;-79
2021/11/07 08:05:15;;;;;;;3.92;2.75;;;17.00;99.90;;;;;;5031884;28;20049;-77
2021/11/07 08:07:44;;;;;;;3.75;2.75;;;17.50;99.90;;;;;;5034226;28;20339;-78
2021/11/07 08:10:12;;;;;;;4.70;2.85;;;17.80;99.90;;;;;;5021972;28;20061;-77
2021/11/07 08:12:39;;;;;;;3.15;2.55;;;18.00;99.90;;;;;;5031276;28;20463;-76
2021/11/07 08:15:09;;;;;;;6.43;2.60;;;18.00;99.90;;;;;;5031927;28;20036;-78
2021/11/07 08:17:35;;;;;;;3.00;2.47;;;18.10;99.90;;;;;;5014477;28;20053;-77
2021/11/07 08:20:05;;;;;;;3.95;2.60;;;18.30;99.90;;;;;;5031648;28;20032;-77
2021/11/07 08:22:31;;;;;;;3.88;2.60;;;18.20;99.90;;;;;;5031285;28;20394;-77
2021/11/07 08:24:57;;;;;;;2.58;2.05;;;18.50;99.90;;;;;;5031186;28;20440;-77
2021/11/07 08:27:24;;;;;;;6.00;2.97;;;18.70;99.90;;;;;;5033605;28;20050;-76
2021/11/07 08:29:53;;;;;;;3.55;2.17;;;19.80;99.90;;;;;;5034803;28;20018;-77
2021/11/07 08:32:20;;;;;;;5.25;2.60;;;20.70;99.90;;;;;;5033742;28;20029;-79
2021/11/07 08:34:47;;;;;;;3.30;2.35;;;22.10;99.90;;;;;;5035009;28;20030;-77
2021/11/07 08:37:15;;;;;;;3.13;2.22;;;22.70;99.90;;;;;;5035368;28;20105;-78
2021/11/07 08:39:50;;;;;;;4.15;2.88;;;23.90;99.90;;;;;;5034932;28;20029;-79
2021/11/07 08:42:21;;;;;;;2.78;2.13;;;24.40;99.40;;;;;;5035135;28;20060;-77
2021/11/07 09:08:49;;;;;;;4.68;1.80;;;31.50;79.50;;;;;;5033980;28;20493;-77
2021/11/07 09:11:16;;;;;;;3.15;1.67;;;30.70;79.00;;;;;;5033792;28;20462;-75
2021/11/07 09:13:42;;;;;;;3.58;1.92;;;30.00;80.70;;;;;;5033855;28;20363;-76
2021/11/07 09:16:09;;;;;;;2.08;1.45;;;30.70;79.50;;;;;;5032456;28;20099;-76
2021/11/07 09:18:36;;;;;;;4.68;1.77;;;31.10;77.80;;;;;;5032637;28;20123;-74
2021/11/07 09:21:12;;;;;;;5.30;1.70;;;29.10;80.30;;;;;;5033253;28;20030;-75
2021/11/07 09:23:49;;;;;;;4.60;2.13;;;28.60;81.50;;;;;;5032274;28;20029;-78
2021/11/07 09:29:22;;;;;;;2.45;1.70;;;31.40;76.80;;;;;;5038600;28;20161;-76
2021/11/07 09:31:48;;;;;;;2.00;1.20;;;33.10;74.50;;;;;;5029592;28;20038;-78
2021/11/07 09:34:24;;;;;;;4.55;2.00;;;34.90;71.10;;;;;;5044000;28;20042;-76
2021/11/07 09:37:03;;;;;;;7.68;3.83;;;35.00;68.80;;;;;;5017116;28;20037;-81
2021/11/07 09:39:38;;;;;;;4.00;2.03;;;34.80;68.30;;;;;;5033930;28;20068;-81
2021/11/07 09:44:53;;;;;;;3.92;1.77;;;36.10;65.50;;;;;;5033158;28;20052;-79
2021/11/07 09:47:20;;;;;;;2.03;1.50;;;36.10;65.20;;;;;;5025854;28;20030;-80
2021/11/07 09:49:48;;;;;;;4.35;1.70;;;37.10;64.80;;;;;;5023183;28;20048;-83
2021/11/07 09:52:22;;;;;;;4.13;2.08;;;37.90;62.00;;;;;;5013934;28;20441;-78
2021/11/07 09:54:58;;;;;;;7.95;3.58;;;38.30;59.70;;;;;;5028784;28;20060;-81
2021/11/07 09:57:26;;;;;;;6.28;2.30;;;35.80;62.90;;;;;;5029854;28;20021;-76
2021/11/07 09:59:58;;;;;;;2.42;1.67;;;33.30;66.50;;;;;;5032853;28;20026;-81
2021/11/07 10:02:28;;;;;;;3.65;2.00;;;32.10;68.00;;;;;;5026571;28;20134;-76
2021/11/07 10:04:56;;;;;;;2.70;1.90;;;32.00;68.80;;;;;;5033217;28;20059;-80
2021/11/07 10:07:31;;;;;;;7.57;2.13;;;31.10;69.80;;;;;;5033239;28;20067;-76
2021/11/07 10:10:00;;;;;;;3.15;2.03;;;30.20;72.00;;;;;;5032989;28;20026;-79
2021/11/07 10:15:11;;;;;;;3.50;2.63;;;29.20;73.50;;;;;;5032037;28;20069;-80
2021/11/07 10:17:41;;;;;;;4.37;2.00;;;27.80;76.30;;;;;;5026769;28;20116;-78
2021/11/07 10:20:22;;;;;;;4.85;2.80;;;27.10;78.10;;;;;;5031962;28;20036;-77
2021/11/07 10:23:16;;;;;;;8.55;2.60;;;27.60;77.30;;;;;;5032131;28;20033;-79
2021/11/07 10:28:51;;;;;;;2.63;2.35;;;28.90;75.60;;;;;;5031119;28;20044;-78
2021/11/07 10:31:25;;;;;;;5.20;1.63;;;30.30;72.90;;;;;;5031922;28;20382;-79
2021/11/07 10:53:13;;;;;;;;;;;25.90;81.00;;;;;;5026712;28;20114;-80
2021/11/07 10:55:45;;;;;;;2.60;2.40;;;25.60;82.10;;;;;;5033072;28;19905;-82
2021/11/07 10:58:11;;;;;;;8.65;3.20;;;25.20;83.40;;;;;;5034966;28;20553;-83
2021/11/07 11:00:40;;;;;;;8.27;3.03;;;24.70;84.00;;;;;;5032875;28;20121;-80
2021/11/07 11:03:19;;;;;;;5.53;3.05;;;24.20;85.10;;;;;;5033300;28;20087;-80
2021/11/07 11:06:08;;;;;;;6.07;2.70;;;23.90;85.70;;;;;;5033344;28;20065;-81
2021/11/07 11:08:53;;;;;;;6.82;3.17;;;23.40;87.00;;;;;;5037467;28;20434;-82
2021/11/07 11:11:29;;;;;;;4.43;2.45;;;22.90;88.80;;;;;;5031791;28;20040;-84
2021/11/07 11:17:07;;;;;;;7.55;3.00;;;22.50;90.20;;;;;;5035392;28;20042;-80
2021/11/07 11:27:46;;;;;;;5.88;3.33;;;21.70;92.00;;;;;;5039069;28;20045;-83
2021/11/07 11:43:45;;;;;;;6.03;3.33;;;20.20;94.30;;;;;;4974560;28;20407;-84
2021/11/07 11:46:29;;;;;;;9.48;3.38;;;19.80;95.20;;;;;;5022903;28;20052;-81
2021/11/07 11:57:21;;;;;;;6.55;2.60;;;18.90;96.00;;;;;;5021414;28;20026;-84
2021/11/07 12:00:09;;;;;;;6.07;3.60;;;18.60;96.50;;;;;;5030329;28;20042;-80
2021/11/07 12:08:40;;;;;;;5.07;2.95;;;17.90;98.10;;;;;;5034345;28;20091;-80
2021/11/07 12:11:24;;;;;;;7.65;3.60;;;17.60;98.80;;;;;;5033187;28;20030;-81
2021/11/07 12:14:04;;;;;;;12.45;3.53;;;17.40;99.40;;;;;;5030753;28;20041;-80
2021/11/07 12:16:49;;;;;;;8.35;3.22;;;17.30;99.60;;;;;;5031254;28;20060;-79
2021/11/07 12:19:18;;;;;;;4.90;2.70;;;17.10;99.90;;;;;;5031985;28;20025;-78
2021/11/07 12:21:56;;;;;;;5.70;3.55;;;17.00;99.90;;;;;;5033096;28;20030;-79
2021/11/07 12:24:32;;;;;;;6.65;3.60;;;16.90;99.90;;;;;;5032194;28;20022;-79
2021/11/07 12:27:17;;;;;;;5.70;3.50;;;16.80;99.90;;;;;;5033939;28;20037;-82
2021/11/07 12:29:44;;;;;;;5.50;3.20;;;16.70;99.90;;;;;;5032975;28;20056;-81
2021/11/07 12:32:11;;;;;;;5.45;2.95;;;16.50;99.90;;;;;;5033940;28;21156;-80
2021/11/07 12:41:01;;;;;;;7.32;4.20;;;16.20;99.90;;;;;;5023488;28;20064;-79
2021/11/07 12:43:40;;;;;;;6.93;3.55;;;16.10;99.90;;;;;;5033926;28;20097;-78
2021/11/07 12:49:16;;;;;;;13.02;4.18;;;16.00;99.90;;;;;;5032859;28;20041;-78
2021/11/07 12:51:50;;;;;;;6.53;3.20;;;16.00;99.90;;;;;;5032610;28;20045;-78
2021/11/07 12:54:24;;;;;;;7.10;3.50;;;16.00;99.90;;;;;;5013017;28;20040;-74
2021/11/07 12:56:59;;;;;;;6.80;4.70;;;16.00;99.90;;;;;;5032185;28;20478;-78
2021/11/07 12:59:40;;;;;;;5.43;3.53;;;16.00;99.90;;;;;;5031975;28;20425;-79
2021/11/07 13:02:12;;;;;;;11.95;3.85;;;16.00;99.90;;;;;;5032856;28;20543;-77
2021/11/07 13:04:38;;;;;;;14.23;3.60;;;15.90;99.90;;;;;;5033857;28;20029;-77
2021/11/07 13:07:05;;;;;;;7.18;3.63;;;15.90;99.90;;;;;;5032545;28;20110;-78
2021/11/07 13:09:39;;;;;;;8.57;4.50;;;15.90;99.90;;;;;;5033288;28;20385;-79
2021/11/07 13:12:14;;;;;;;13.63;4.55;;;15.80;99.90;;;;;;5033180;28;20030;-79
2021/11/07 13:21:01;;;;;;;14.25;4.15;;;15.80;99.90;;;;;;5033209;28;20083;-79
2021/11/07 13:31:58;;;;;;;10.88;3.83;;;15.80;99.90;;;;;;5015077;28;20117;-78
2021/11/07 13:34:24;;;;;;;;;;;15.80;99.90;;;;;;5033058;28;20425;-78
2021/11/07 13:36:51;;;;;;;6.40;4.10;;;15.80;99.90;;;;;;5033815;28;19905;-79
2021/11/07 13:39:30;;;;;;;4.57;3.80;;;15.70;99.90;;;;;;5032978;28;20064;-77
2021/11/07 13:42:09;;;;;;;5.70;4.18;;;15.60;99.90;;;;;;5033738;28;20032;-78
2021/11/07 13:44:47;;;;;;;9.40;4.10;;;15.60;99.90;;;;;;5033120;28;20053;-77
2021/11/07 13:47:13;;;;;;;9.63;3.97;;;15.60;99.90;;;;;;5032927;28;20029;-79
2021/11/07 13:49:52;;;;;;;6.65;4.32;;;15.60;99.90;;;;;;5033298;28;20034;-79
2021/11/07 13:52:19;;;;;;;19.98;5.20;;;15.50;99.90;;;;;;5033463;28;20105;-78
2021/11/07 13:54:45;;;;;;;7.60;4.55;;;15.50;99.90;;;;;;5033046;28;20046;-79
2021/11/07 13:57:12;;;;;;;7.82;4.03;;;15.50;99.90;;;;;;5033032;28;20367;-78
2021/11/07 13:59:43;;;;;;;8.98;4.18;;;15.40;99.90;;;;;;5031758;28;20152;-79
2021/11/07 14:02:20;;;;;;;15.15;4.97;;;15.40;99.90;;;;;;5032645;28;20053;-79
2021/11/07 14:04:47;;;;;;;6.07;4.00;;;15.40;99.90;;;;;;5033198;28;20040;-80
2021/11/07 14:07:26;;;;;;;7.35;3.65;;;15.40;99.90;;;;;;5032875;28;20382;-79
2021/11/07 14:09:59;;;;;;;10.98;4.22;;;15.40;99.90;;;;;;5032751;28;20026;-78
2021/11/07 14:12:42;;;;;;;13.88;4.65;;;15.30;99.90;;;;;;5032866;28;20286;-78
2021/11/07 14:15:29;;;;;;;7.03;4.93;;;15.30;99.90;;;;;;5032861;28;20037;-79
2021/11/07 14:18:18;;;;;;;13.77;5.35;;;15.20;99.90;;;;;;5014998;28;20117;-77
2021/11/07 14:20:53;;;;;;;15.43;4.18;;;15.20;99.90;;;;;;5014933;28;20049;-78
2021/11/07 14:26:01;;;;;;;11.73;4.97;;;15.10;99.90;;;;;;5031494;28;20118;-79
2021/11/07 14:28:35;;;;;;;11.88;5.10;;;15.00;99.90;;;;;;5032088;28;20038;-80
2021/11/07 14:31:10;;;;;;;17.15;5.00;;;15.00;99.90;;;;;;5032223;28;20314;-79
2021/11/07 14:33:44;;;;;;;7.90;4.72;;;15.00;99.90;;;;;;5030381;28;20120;-80
2021/11/07 14:36:22;;;;;;;17.90;4.60;;;15.00;99.90;;;;;;5030753;28;20354;-81
2021/11/07 14:38:59;;;;;;;11.93;5.00;;;15.00;99.90;;;;;;5031985;28;20489;-78
2021/11/07 14:41:38;;;;;;;8.82;4.35;;;15.00;99.90;;;;;;5032171;28;20025;-79
2021/11/07 14:44:14;;;;;;;14.65;5.90;;;15.00;99.90;;;;;;5029864;28;20033;-78
2021/11/07 14:46:45;;;;;;;9.75;5.00;;;15.00;99.90;;;;;;5031467;28;20025;-78
2021/11/07 14:49:58;;;;;;;;;;;15.00;99.90;;;;;;5032177;28;20053;-79
2021/11/07 14:55:45;;;;;;;8.77;4.93;;;15.00;99.90;;;;;;4970048;28;20046;-79
2021/11/07 15:00:42;;;;;;;;;;;14.90;99.90;;;;;;5032226;28;20072;-77
2021/11/07 15:03:12;;;;;;;15.33;5.00;;;14.90;99.90;;;;;;5014280;28;19905;-78
2021/11/07 15:10:57;;;;;;;8.90;4.85;;;14.90;99.90;;;;;;5031583;28;20033;-76
2021/11/07 15:24:03;;;;;;;24.95;15.18;;;14.70;99.90;;;;;;5023177;28;20498;-78
2021/11/07 15:26:36;;;;;;;29.70;14.07;;;14.70;99.90;;;;;;5011087;28;20111;-79
2021/11/07 15:29:03;;;;;;;32.53;16.52;;;14.70;99.90;;;;;;5014048;28;20448;-76
2021/11/07 15:31:30;;;;;;;31.70;16.88;;;14.70;99.90;;;;;;5010617;28;20115;-78
2021/11/07 15:33:58;;;;;;;30.85;14.05;;;14.60;99.90;;;;;;5030878;28;20046;-77
2021/11/07 15:36:26;;;;;;;25.55;13.32;;;14.60;99.90;;;;;;5030619;28;20462;-77
2021/11/07 15:39:23;;;;;;;19.35;12.43;;;14.60;99.90;;;;;;5030706;28;20029;-78
2021/11/07 15:42:10;;;;;;;35.03;15.95;;;14.60;99.90;;;;;;5014832;28;20474;-77
2021/11/07 15:44:46;;;;;;;24.10;14.35;;;14.60;99.90;;;;;;5030070;28;20076;-77
2021/11/07 15:47:14;;;;;;;34.28;14.40;;;14.50;99.90;;;;;;5030658;28;20031;-77
2021/11/07 15:49:45;;;;;;;20.52;12.30;;;14.50;99.90;;;;;;5031118;28;20072;-78
2021/11/07 15:52:33;;;;;;;28.60;11.95;;;14.50;99.90;;;;;;5013214;28;20041;-78
2021/11/07 15:57:36;;;;;;;29.55;19.05;;;14.40;99.90;;;;;;5027910;28;20045;-78
2021/11/07 16:00:33;;;;;;;31.55;17.52;;;14.40;99.90;;;;;;5028847;28;20540;-77
2021/11/07 16:03:06;;;;;;;25.48;14.40;;;14.40;99.90;;;;;;5017109;28;20044;-78
2021/11/07 16:18:41;;;;;;;22.33;12.32;;;14.40;99.90;;;;;;5029948;28;20030;-77
2021/11/07 16:21:10;;;;;;;24.27;12.30;;;14.40;99.90;;;;;;5030451;28;20036;-77
2021/11/07 16:23:36;;;;;;;20.63;12.35;;;14.30;99.90;;;;;;5030016;28;20032;-74
2021/11/07 16:26:07;;;;;;;25.55;12.23;;;14.30;99.90;;;;;;5029838;28;20129;-77
2021/11/07 16:28:36;;;;;;;40.58;27.65;;;14.30;99.90;;;;;;5030828;28;20029;-76